Time;durP1;ratioP1;P1;durP2;ratioP2;P2;SDS_P1;SDS_P2;PMS_P1;PMS_P2;Temp;Humidity;BMP_temperature;BMP_pressure;BME280_temperature;BME280_humidity;BME280_pressure;Samples;Min_cycle;Max_cycle;Signal;HPM_P1;HPM_P2
2022/10/20 00:01:05;;;;;;;31.15;19.88;;;;;;;;;;6105984;23;20010;-80
2022/10/20 00:03:33;;;;;;;24.27;16.83;;;;;;;;;;6073644;23;20816;-80
2022/10/20 00:06:33;;;;;;;24.90;17.50;;;;;;;;;;6104537;23;20019;-80
2022/10/20 00:09:01;;;;;;;21.45;16.73;;;;;;;;;;6044924;23;20033;-81
2022/10/20 00:11:29;;;;;;;24.55;18.30;;;;;;;;;;6099659;23;20037;-81
2022/10/20 00:13:58;;;;;;;29.95;20.50;;;;;;;;;;6105511;23;20021;-80
2022/10/20 00:16:27;;;;;;;26.27;18.20;;;;;;;;;;6105978;23;20018;-81
2022/10/20 00:18:56;;;;;;;26.83;15.50;;;;;;;;;;6101581;23;20035;-81
2022/10/20 00:21:25;;;;;;;26.77;16.67;;;;;;;;;;6106227;23;20505;-81
2022/10/20 00:23:53;;;;;;;28.63;14.80;;;;;;;;;;6046406;23;20033;-81
2022/10/20 00:26:22;;;;;;;30.02;16.77;;;;;;;;;;6103427;23;20022;-81
2022/10/20 00:28:50;;;;;;;26.95;16.23;;;;;;;;;;6080546;23;20018;-80
2022/10/20 00:31:19;;;;;;;26.75;14.38;;;;;;;;;;6074583;23;20082;-80
2022/10/20 00:33:47;;;;;;;20.67;14.98;;;;;;;;;;6080875;23;20438;-81
2022/10/20 00:36:16;;;;;;;26.42;14.52;;;;;;;;;;6095750;23;20026;-81
2022/10/20 00:38:44;;;;;;;24.60;15.30;;;;;;;;;;6096492;23;20022;-81
2022/10/20 00:41:17;;;;;;;22.70;14.85;;;;;;;;;;6106269;23;20021;-80
2022/10/20 00:43:49;;;;;;;25.02;15.10;;;;;;;;;;6097868;23;20037;-80
2022/10/20 00:46:21;;;;;;;20.67;14.57;;;;;;;;;;6103622;23;20026;-80
2022/10/20 00:48:54;;;;;;;22.17;16.13;;;;;;;;;;6080213;23;20457;-80
2022/10/20 00:51:23;;;;;;;21.25;14.90;;;;;;;;;;6099182;23;20022;-83
2022/10/20 00:53:52;;;;;;;33.67;15.15;;;;;;;;;;6105872;23;20014;-81
2022/10/20 00:56:20;;;;;;;25.33;12.63;;;;;;;;;;6094758;23;20458;-82
2022/10/20 00:58:48;;;;;;;18.00;12.35;;;;;;;;;;6100167;23;20021;-80
2022/10/20 01:01:16;;;;;;;18.85;13.15;;;;;;;;;;6080934;23;20014;-81
2022/10/20 01:03:46;;;;;;;27.00;16.35;;;;;;;;;;6046475;23;20465;-80
2022/10/20 01:06:15;;;;;;;21.08;15.23;;;;;;;;;;6077875;23;20442;-80
2022/10/20 01:08:44;;;;;;;25.10;14.27;;;;;;;;;;6046884;23;20026;-80
2022/10/20 01:11:31;;;;;;;20.23;14.30;;;;;;;;;;6069593;23;20077;-80
2022/10/20 01:14:01;;;;;;;17.77;12.35;;;;;;;;;;6079118;23;20011;-81
2022/10/20 01:16:41;;;;;;;20.88;13.20;;;;;;;;;;6079995;23;20034;-81
2022/10/20 01:19:19;;;;;;;18.00;13.43;;;;;;;;;;6100011;23;20018;-81
2022/10/20 01:22:06;;;;;;;19.13;12.88;;;;;;;;;;6079908;23;20060;-81
2022/10/20 01:24:37;;;;;;;26.77;11.45;;;;;;;;;;6055169;23;20422;-82
2022/10/20 01:27:13;;;;;;;18.73;12.63;;;;;;;;;;6074673;23;20022;-82
2022/10/20 01:29:52;;;;;;;18.33;13.55;;;;;;;;;;6046783;23;20022;-81
2022/10/20 01:32:35;;;;;;;25.30;15.98;;;;;;;;;;6070555;23;20031;-82
2022/10/20 01:35:09;;;;;;;22.27;13.80;;;;;;;;;;6075469;23;20447;-81
2022/10/20 01:37:52;;;;;;;17.20;11.43;;;;;;;;;;6105028;23;20025;-81
2022/10/20 01:40:46;;;;;;;15.70;11.57;;;;;;;;;;6070047;23;20034;-81
2022/10/20 01:43:15;;;;;;;24.45;15.45;;;;;;;;;;6100321;23;20034;-80
2022/10/20 01:45:45;;;;;;;23.40;15.40;;;;;;;;;;6071639;23;20018;-79
2022/10/20 01:48:13;;;;;;;18.33;14.23;;;;;;;;;;6096918;23;20355;-79
2022/10/20 01:50:42;;;;;;;23.42;15.25;;;;;;;;;;6077404;23;20030;-79
2022/10/20 01:53:09;;;;;;;19.20;14.00;;;;;;;;;;6081303;23;20606;-79
2022/10/20 01:55:37;;;;;;;25.40;13.68;;;;;;;;;;6070953;23;20459;-79
2022/10/20 01:58:20;;;;;;;20.30;13.50;;;;;;;;;;6070607;23;20358;-80
2022/10/20 02:00:50;;;;;;;18.05;12.85;;;;;;;;;;6072564;23;20018;-79
2022/10/20 02:03:25;;;;;;;17.80;13.15;;;;;;;;;;6047000;23;20022;-79
2022/10/20 02:05:59;;;;;;;17.88;10.75;;;;;;;;;;6047313;23;20023;-79
2022/10/20 02:08:29;;;;;;;21.10;13.15;;;;;;;;;;6094401;23;20458;-80
2022/10/20 02:10:59;;;;;;;26.50;12.77;;;;;;;;;;6076756;23;20018;-79
2022/10/20 02:13:28;;;;;;;16.45;13.68;;;;;;;;;;6106903;23;20025;-79
2022/10/20 02:15:59;;;;;;;21.20;14.07;;;;;;;;;;6070635;23;20053;-82
2022/10/20 02:18:30;;;;;;;19.83;14.43;;;;;;;;;;6071300;23;20030;-79
2022/10/20 02:20:58;;;;;;;19.50;13.85;;;;;;;;;;6081060;23;20037;-79
2022/10/20 02:23:27;;;;;;;19.73;14.80;;;;;;;;;;6100190;23;20022;-79
2022/10/20 02:25:59;;;;;;;22.05;12.27;;;;;;;;;;6046790;23;20450;-79
2022/10/20 02:28:30;;;;;;;20.08;13.80;;;;;;;;;;6071185;23;20026;-79
2022/10/20 02:30:58;;;;;;;16.75;11.30;;;;;;;;;;6070348;23;20034;-79
2022/10/20 02:33:26;;;;;;;21.05;12.25;;;;;;;;;;6081357;23;20022;-79
2022/10/20 02:35:59;;;;;;;14.95;12.05;;;;;;;;;;6046641;23;20026;-79
2022/10/20 02:38:26;;;;;;;22.13;12.80;;;;;;;;;;6046039;23;20766;-79
2022/10/20 02:40:54;;;;;;;21.25;13.55;;;;;;;;;;6081696;23;20018;-79
2022/10/20 02:43:22;;;;;;;17.52;12.85;;;;;;;;;;6099833;23;20030;-79
2022/10/20 02:45:49;;;;;;;15.82;11.95;;;;;;;;;;6071328;23;20015;-79
2022/10/20 02:48:17;;;;;;;22.65;13.55;;;;;;;;;;6071005;23;20029;-79
2022/10/20 02:50:44;;;;;;;17.63;11.05;;;;;;;;;;6101943;23;20018;-79
2022/10/20 02:53:12;;;;;;;17.88;11.60;;;;;;;;;;6081041;23;20308;-79
2022/10/20 02:55:41;;;;;;;27.30;13.73;;;;;;;;;;6098781;23;20022;-79
2022/10/20 02:58:09;;;;;;;14.35;11.27;;;;;;;;;;6104406;23;20033;-79
2022/10/20 03:00:36;;;;;;;17.73;11.23;;;;;;;;;;6081498;23;20014;-79
2022/10/20 03:03:04;;;;;;;17.77;11.93;;;;;;;;;;6101285;23;20037;-79
2022/10/20 03:05:32;;;;;;;12.70;9.30;;;;;;;;;;6105335;23;20018;-79
2022/10/20 03:07:59;;;;;;;18.27;11.05;;;;;;;;;;6097033;23;20038;-79
2022/10/20 03:10:27;;;;;;;19.38;12.55;;;;;;;;;;6103694;23;20029;-79
2022/10/20 03:12:55;;;;;;;26.90;13.52;;;;;;;;;;6106203;23;20025;-80
2022/10/20 03:15:23;;;;;;;21.70;11.70;;;;;;;;;;6074195;23;20319;-79
2022/10/20 03:17:50;;;;;;;19.13;12.70;;;;;;;;;;6081068;23;20011;-79
2022/10/20 03:20:18;;;;;;;15.85;11.25;;;;;;;;;;6046375;23;20026;-79
2022/10/20 03:22:45;;;;;;;15.30;11.02;;;;;;;;;;6070043;23;20014;-79
2022/10/20 03:25:13;;;;;;;18.55;9.63;;;;;;;;;;6080849;23;20308;-79
2022/10/20 03:27:41;;;;;;;15.98;10.93;;;;;;;;;;6098646;23;20544;-79
2022/10/20 03:30:09;;;;;;;17.02;12.20;;;;;;;;;;6104497;23;20034;-79
2022/10/20 03:32:36;;;;;;;18.75;10.70;;;;;;;;;;6071168;23;20019;-79
2022/10/20 03:35:05;;;;;;;21.00;12.10;;;;;;;;;;6100505;23;20501;-78
2022/10/20 03:37:33;;;;;;;14.43;12.73;;;;;;;;;;6105493;23;20033;-79
2022/10/20 03:40:11;;;;;;;18.30;10.57;;;;;;;;;;6097080;23;20597;-79
2022/10/20 03:42:39;;;;;;;18.98;11.93;;;;;;;;;;6070027;23;20023;-78
2022/10/20 03:45:07;;;;;;;21.23;11.13;;;;;;;;;;6071351;23;20019;-81
2022/10/20 03:47:34;;;;;;;17.85;11.23;;;;;;;;;;6098115;23;20489;-82
2022/10/20 03:50:03;;;;;;;16.05;10.88;;;;;;;;;;6070636;23;20439;-81
2022/10/20 03:52:31;;;;;;;13.82;10.10;;;;;;;;;;6079547;23;20038;-79
2022/10/20 03:54:59;;;;;;;17.45;9.80;;;;;;;;;;6075859;23;20434;-79
2022/10/20 03:57:27;;;;;;;18.42;11.82;;;;;;;;;;6081658;23;20035;-90
2022/10/20 03:59:55;;;;;;;20.00;12.68;;;;;;;;;;6047419;23;20027;-90
2022/10/20 04:02:28;;;;;;;20.20;10.95;;;;;;;;;;6079234;23;20014;-90
2022/10/20 04:04:55;;;;;;;19.08;10.25;;;;;;;;;;6081230;23;20014;-90
2022/10/20 04:07:23;;;;;;;12.90;9.52;;;;;;;;;;6074177;23;20690;-87
2022/10/20 04:13:29;;;;;;;16.67;11.02;;;;;;;;;;6079934;23;20026;-87
2022/10/20 04:15:56;;;;;;;12.38;10.20;;;;;;;;;;6047475;23;20030;-87
2022/10/20 04:18:24;;;;;;;19.92;11.40;;;;;;;;;;6071050;23;20033;-87
2022/10/20 04:20:52;;;;;;;12.43;9.43;;;;;;;;;;6047925;23;20438;-87
2022/10/20 04:23:19;;;;;;;18.10;9.50;;;;;;;;;;6100300;23;20029;-87
2022/10/20 04:25:47;;;;;;;12.70;9.95;;;;;;;;;;6047904;23;20037;-87
2022/10/20 04:28:17;;;;;;;16.92;11.55;;;;;;;;;;6096261;23;20031;-89
2022/10/20 04:30:56;;;;;;;24.10;13.60;;;;;;;;;;6072046;23;20019;-88
2022/10/20 04:33:28;;;;;;;23.90;11.57;;;;;;;;;;6073199;23;20048;-79
2022/10/20 04:35:56;;;;;;;25.70;11.45;;;;;;;;;;6099364;23;20670;-80
2022/10/20 04:38:28;;;;;;;21.10;10.27;;;;;;;;;;6131045;23;20041;-79
2022/10/20 04:40:57;;;;;;;11.82;7.97;;;;;;;;;;6099173;23;20024;-79
2022/10/20 04:43:30;;;;;;;31.83;11.35;;;;;;;;;;6128078;23;20018;-81
2022/10/20 04:46:02;;;;;;;22.55;11.98;;;;;;;;;;6099209;23;20442;-82
2022/10/20 04:48:35;;;;;;;19.30;9.88;;;;;;;;;;6135552;23;20017;-81
2022/10/20 04:51:04;;;;;;;13.55;8.85;;;;;;;;;;6074760;23;20034;-80
2022/10/20 04:53:32;;;;;;;17.98;10.88;;;;;;;;;;6099350;23;20021;-83
2022/10/20 04:56:00;;;;;;;13.23;9.93;;;;;;;;;;6098308;23;20026;-82
2022/10/20 04:58:28;;;;;;;15.98;11.02;;;;;;;;;;6107191;23;20018;-81
2022/10/20 05:01:00;;;;;;;15.27;10.73;;;;;;;;;;6134367;23;20018;-82
2022/10/20 05:03:28;;;;;;;22.77;11.85;;;;;;;;;;6128875;23;20354;-81
2022/10/20 05:06:06;;;;;;;20.83;12.40;;;;;;;;;;6135481;23;20018;-82
2022/10/20 05:08:34;;;;;;;14.73;10.55;;;;;;;;;;6037980;23;20022;-82
2022/10/20 05:11:08;;;;;;;14.38;10.15;;;;;;;;;;6099880;23;20017;-82
2022/10/20 05:13:36;;;;;;;19.17;10.70;;;;;;;;;;6110094;23;20013;-82
2022/10/20 05:16:04;;;;;;;19.58;12.02;;;;;;;;;;6075872;23;20022;-82
2022/10/20 05:18:33;;;;;;;24.20;9.98;;;;;;;;;;6109039;23;20014;-85
2022/10/20 05:21:05;;;;;;;15.75;10.52;;;;;;;;;;6101009;23;20026;-82
2022/10/20 05:23:37;;;;;;;16.63;10.77;;;;;;;;;;6128030;23;20457;-83
2022/10/20 05:26:06;;;;;;;18.30;10.68;;;;;;;;;;6101138;23;20021;-82
2022/10/20 05:28:34;;;;;;;19.63;11.80;;;;;;;;;;6101765;23;20790;-82
2022/10/20 05:31:03;;;;;;;19.15;11.75;;;;;;;;;;6106541;23;20634;-81
2022/10/20 05:33:30;;;;;;;18.08;12.18;;;;;;;;;;6101815;23;20021;-82
2022/10/20 06:13:17;;;;;;;19.13;12.63;;;;;;;;;;6086378;23;20469;-83
2022/10/20 06:24:03;;;;;;;15.25;10.30;;;;;;;;;;5931542;24;20024;-80
2022/10/20 06:26:50;;;;;;;;;;;;;;;;;;;;;
2022/10/20 06:35:07;;;;;;;15.18;9.50;;;;;;;;;;6065822;23;20024;-82
2022/10/20 06:37:35;;;;;;;13.02;8.52;;;;;;;;;;6095511;23;20029;-80
2022/10/20 06:40:03;;;;;;;14.65;9.48;;;;;;;;;;6099384;23;20037;-82
2022/10/20 06:42:34;;;;;;;19.95;10.32;;;;;;;;;;6071005;23;20023;-81
2022/10/20 06:45:40;;;;;;;19.85;9.65;;;;;;;;;;6078878;23;20040;-82
2022/10/20 06:49:10;;;;;;;;;;;;;;;;;;;;;
2022/10/20 06:53:14;;;;;;;12.85;9.57;;;;;;;;;;6077102;23;20013;-81
2022/10/20 06:55:42;;;;;;;14.02;8.95;;;;;;;;;;6070405;23;20026;-81
2022/10/20 06:58:59;;;;;;;19.80;11.60;;;;;;;;;;6070735;23;20015;-83
2022/10/20 07:33:40;;;;;;;10.30;7.90;;;;;;;;;;5895160;24;20024;-80
2022/10/20 07:36:12;;;;;;;12.38;7.97;;;;;;;;;;5894404;24;20470;-80
2022/10/20 07:38:39;;;;;;;12.30;9.00;;;;;;;;;;5898747;24;20036;-80
2022/10/20 07:41:15;;;;;;;20.50;8.88;;;;;;;;;;5931852;23;20021;-80
2022/10/20 07:43:43;;;;;;;20.10;9.05;;;;;;;;;;5937715;24;20035;-80
2022/10/20 07:46:11;;;;;;;14.98;8.70;;;;;;;;;;5980820;24;20369;-80
2022/10/20 07:48:39;;;;;;;10.50;8.73;;;;;;;;;;6052453;23;20063;-80
2022/10/20 07:51:19;;;;;;;12.10;6.50;;;;;;;;;;5986588;23;20022;-80
2022/10/20 07:53:50;;;;;;;12.90;8.05;;;;;;;;;;6044202;23;20343;-80
2022/10/20 07:56:19;;;;;;;11.23;7.18;;;;;;;;;;6058364;23;20030;-80
2022/10/20 07:58:47;;;;;;;6.95;6.03;;;;;;;;;;6064315;23;20023;-80
2022/10/20 08:01:15;;;;;;;9.27;7.68;;;;;;;;;;6068384;23;20343;-80
2022/10/20 08:03:43;;;;;;;11.23;8.43;;;;;;;;;;6036747;23;20398;-80
2022/10/20 08:06:11;;;;;;;6.97;5.25;;;;;;;;;;6018874;23;20046;-80
2022/10/20 08:08:39;;;;;;;8.63;6.40;;;;;;;;;;6010355;23;20358;-80
2022/10/20 08:11:06;;;;;;;9.07;8.27;;;;;;;;;;6033747;23;20023;-80
2022/10/20 08:13:39;;;;;;;10.05;6.95;;;;;;;;;;6011713;23;20026;-80
2022/10/20 08:16:07;;;;;;;8.85;5.57;;;;;;;;;;6058304;23;20023;-80
2022/10/20 08:18:37;;;;;;;8.25;6.95;;;;;;;;;;6010476;23;20030;-81
2022/10/20 08:21:12;;;;;;;14.15;7.32;;;;;;;;;;6010451;23;20462;-80
2022/10/20 08:23:41;;;;;;;8.02;6.13;;;;;;;;;;6010450;23;20034;-80
2022/10/20 08:26:09;;;;;;;8.63;6.55;;;;;;;;;;6010184;23;20019;-81
2022/10/20 08:28:38;;;;;;;8.95;6.78;;;;;;;;;;6010728;23;20046;-80
2022/10/20 08:31:06;;;;;;;10.88;5.80;;;;;;;;;;6033549;23;20023;-81
2022/10/20 08:33:34;;;;;;;8.70;7.47;;;;;;;;;;6020200;23;20657;-81
2022/10/20 08:36:03;;;;;;;8.93;6.45;;;;;;;;;;6009940;23;20038;-81
2022/10/20 08:38:30;;;;;;;7.90;7.15;;;;;;;;;;6064730;23;20517;-80
2022/10/20 08:41:04;;;;;;;10.73;6.72;;;;;;;;;;6060168;23;20033;-80
2022/10/20 08:43:40;;;;;;;8.90;5.78;;;;;;;;;;6060883;23;20026;-80
2022/10/20 08:46:14;;;;;;;10.85;5.88;;;;;;;;;;6066033;23;20026;-81
2022/10/20 08:48:43;;;;;;;8.60;6.40;;;;;;;;;;6010500;23;20081;-81
2022/10/20 08:51:16;;;;;;;10.80;6.10;;;;;;;;;;6009372;23;20023;-81
2022/10/20 08:53:43;;;;;;;11.07;5.60;;;;;;;;;;6069703;23;20022;-81
2022/10/20 08:56:13;;;;;;;8.98;5.88;;;;;;;;;;6078177;23;20680;-81
2022/10/20 08:58:42;;;;;;;10.48;6.43;;;;;;;;;;6098837;23;20349;-81
2022/10/20 09:01:21;;;;;;;8.85;6.68;;;;;;;;;;6043388;23;20048;-81
2022/10/20 09:03:52;;;;;;;8.50;7.35;;;;;;;;;;6088535;23;20026;-81
2022/10/20 09:06:20;;;;;;;8.93;6.50;;;;;;;;;;6080248;23;20022;-81
2022/10/20 09:08:48;;;;;;;5.97;4.97;;;;;;;;;;6066548;23;20026;-81
2022/10/20 09:11:25;;;;;;;10.25;6.57;;;;;;;;;;6084333;23;20030;-80
2022/10/20 09:13:53;;;;;;;9.15;6.18;;;;;;;;;;6101658;23;20022;-80
2022/10/20 09:16:25;;;;;;;13.52;7.13;;;;;;;;;;6079992;23;20033;-81
2022/10/20 09:19:15;;;;;;;9.68;5.40;;;;;;;;;;6094141;23;20027;-81
2022/10/20 09:21:44;;;;;;;8.40;5.75;;;;;;;;;;6095188;23;20021;-81
2022/10/20 09:24:12;;;;;;;12.20;6.65;;;;;;;;;;6090368;23;20023;-81
2022/10/20 09:26:44;;;;;;;6.30;5.68;;;;;;;;;;6097627;23;20030;-80
2022/10/20 09:29:36;;;;;;;7.40;6.65;;;;;;;;;;6115710;23;20033;-81
2022/10/20 09:32:15;;;;;;;11.00;6.47;;;;;;;;;;6115975;23;20034;-81
2022/10/20 09:35:21;;;;;;;11.50;6.40;;;;;;;;;;6069264;23;20022;-81
2022/10/20 09:38:01;;;;;;;11.85;5.38;;;;;;;;;;6102197;23;20027;-82
2022/10/20 09:40:29;;;;;;;7.78;6.75;;;;;;;;;;6081664;23;20042;-82
2022/10/20 09:42:59;;;;;;;8.70;6.03;;;;;;;;;;6065882;23;20029;-82
2022/10/20 09:45:32;;;;;;;7.40;6.43;;;;;;;;;;6082127;23;20022;-82
2022/10/20 09:48:02;;;;;;;7.85;6.53;;;;;;;;;;6066292;23;20058;-81
2022/10/20 09:50:34;;;;;;;9.43;5.80;;;;;;;;;;6099130;23;20022;-81
2022/10/20 09:53:05;;;;;;;9.68;5.78;;;;;;;;;;6101904;23;20037;-81
2022/10/20 09:55:35;;;;;;;9.63;7.18;;;;;;;;;;6085901;23;20049;-82
2022/10/20 09:58:04;;;;;;;6.85;5.95;;;;;;;;;;6098976;23;20022;-82
2022/10/20 10:00:36;;;;;;;14.40;5.95;;;;;;;;;;6059208;23;20033;-82
2022/10/20 10:03:22;;;;;;;14.50;7.78;;;;;;;;;;6094507;23;20034;-82
2022/10/20 10:05:54;;;;;;;6.18;5.25;;;;;;;;;;6086230;23;20022;-81
2022/10/20 10:08:23;;;;;;;7.22;5.50;;;;;;;;;;6090742;23;20034;-81
2022/10/20 10:11:17;;;;;;;8.25;7.05;;;;;;;;;;6096782;23;20022;-81
2022/10/20 10:13:46;;;;;;;12.32;6.65;;;;;;;;;;6078308;23;20034;-81
2022/10/20 10:16:15;;;;;;;8.27;5.95;;;;;;;;;;6090451;23;20026;-82
2022/10/20 10:18:44;;;;;;;7.00;5.30;;;;;;;;;;6097101;23;20531;-81
2022/10/20 10:21:16;;;;;;;6.40;5.75;;;;;;;;;;6078000;23;20350;-82
2022/10/20 10:23:52;;;;;;;7.75;6.00;;;;;;;;;;6091883;23;20030;-82
2022/10/20 10:26:38;;;;;;;9.75;8.25;;;;;;;;;;6054831;23;20675;-82
2022/10/20 10:29:14;;;;;;;9.50;6.63;;;;;;;;;;6100480;23;20018;-82
2022/10/20 10:31:46;;;;;;;10.35;6.45;;;;;;;;;;6087248;23;20030;-82
2022/10/20 10:34:13;;;;;;;5.57;4.68;;;;;;;;;;6082397;23;20026;-82
2022/10/20 10:36:41;;;;;;;10.00;6.35;;;;;;;;;;6129978;23;20014;-82
2022/10/20 10:39:14;;;;;;;8.88;5.50;;;;;;;;;;6112875;23;20026;-83
2022/10/20 10:42:07;;;;;;;14.93;5.55;;;;;;;;;;6047264;23;20473;-83
2022/10/20 10:44:50;;;;;;;12.00;6.95;;;;;;;;;;6076710;23;20037;-82
2022/10/20 10:47:26;;;;;;;9.85;6.60;;;;;;;;;;6123969;23;20483;-82
2022/10/20 10:50:19;;;;;;;7.53;5.28;;;;;;;;;;6130527;23;20018;-82
2022/10/20 10:52:46;;;;;;;7.00;5.25;;;;;;;;;;6106214;23;20033;-82
2022/10/20 10:55:25;;;;;;;7.07;4.88;;;;;;;;;;6125197;23;20037;-82
2022/10/20 10:58:24;;;;;;;7.75;4.78;;;;;;;;;;6128630;23;20026;-82
2022/10/20 11:00:51;;;;;;;7.13;5.70;;;;;;;;;;6130689;23;20022;-83
2022/10/20 11:03:43;;;;;;;7.95;4.57;;;;;;;;;;6126116;23;20036;-83
2022/10/20 11:06:11;;;;;;;8.95;5.45;;;;;;;;;;6128128;23;20022;-83
2022/10/20 11:08:46;;;;;;;7.57;5.63;;;;;;;;;;6130341;23;20025;-83
2022/10/20 11:11:23;;;;;;;5.30;4.80;;;;;;;;;;6124442;23;20022;-84
2022/10/20 11:14:20;;;;;;;10.02;5.68;;;;;;;;;;6130606;23;20025;-83
2022/10/20 11:16:51;;;;;;;8.85;8.00;;;;;;;;;;6052081;23;20034;-82
2022/10/20 11:19:18;;;;;;;8.02;5.65;;;;;;;;;;6123940;23;20033;-83
2022/10/20 11:21:52;;;;;;;7.18;5.35;;;;;;;;;;6129418;23;20469;-83
2022/10/20 11:24:19;;;;;;;9.10;4.85;;;;;;;;;;6119410;23;20034;-82
2022/10/20 11:26:52;;;;;;;11.48;6.57;;;;;;;;;;6087208;23;20197;-82
2022/10/20 11:29:40;;;;;;;5.43;4.35;;;;;;;;;;6070648;23;20033;-82
2022/10/20 11:32:11;;;;;;;5.70;5.07;;;;;;;;;;6118977;23;20446;-82
2022/10/20 11:34:39;;;;;;;;;;;;;;;;;;6095612;23;20034;-81
2022/10/20 11:37:12;;;;;;;6.75;6.15;;;;;;;;;;6102489;23;19928;-82
2022/10/20 11:40:06;;;;;;;9.55;7.10;;;;;;;;;;6122377;23;20018;-82
2022/10/20 11:42:45;;;;;;;6.68;6.03;;;;;;;;;;6076626;23;20029;-81
2022/10/20 11:49:51;;;;;;;8.10;4.43;;;;;;;;;;6120768;23;20030;-83
2022/10/20 11:52:29;;;;;;;9.57;5.38;;;;;;;;;;6064718;23;20035;-83
2022/10/20 11:55:03;;;;;;;5.55;4.97;;;;;;;;;;6122514;23;20036;-83
2022/10/20 11:57:45;;;;;;;10.27;4.68;;;;;;;;;;6129222;23;20014;-83
2022/10/20 12:00:18;;;;;;;11.13;5.53;;;;;;;;;;6089198;23;20037;-85
2022/10/20 12:02:51;;;;;;;6.15;4.82;;;;;;;;;;6121781;23;20793;-83
2022/10/20 12:05:24;;;;;;;5.50;5.00;;;;;;;;;;6129547;23;20014;-83
2022/10/20 12:08:03;;;;;;;8.20;5.32;;;;;;;;;;6120646;23;20444;-83
2022/10/20 12:11:09;;;;;;;6.15;4.68;;;;;;;;;;6125285;23;20354;-83
2022/10/20 12:13:37;;;;;;;8.18;6.70;;;;;;;;;;6098633;23;20029;-83
2022/10/20 12:16:04;;;;;;;7.57;5.25;;;;;;;;;;6119457;23;20049;-83
2022/10/20 12:18:34;;;;;;;5.00;4.50;;;;;;;;;;6126269;23;20029;-83
2022/10/20 12:21:09;;;;;;;10.07;7.38;;;;;;;;;;6129252;23;20025;-84
2022/10/20 12:23:43;;;;;;;7.68;5.43;;;;;;;;;;6122358;23;20350;-83
2022/10/20 12:26:29;;;;;;;8.25;5.25;;;;;;;;;;6115397;23;20544;-83
2022/10/20 12:28:57;;;;;;;6.20;5.45;;;;;;;;;;6129820;23;20018;-83
2022/10/20 12:31:25;;;;;;;9.63;7.07;;;;;;;;;;6123029;23;20087;-83
2022/10/20 12:33:52;;;;;;;6.82;4.75;;;;;;;;;;6129399;23;20025;-84
2022/10/20 12:36:27;;;;;;;8.15;6.00;;;;;;;;;;6118605;23;20037;-83
2022/10/20 12:39:08;;;;;;;7.20;6.53;;;;;;;;;;6125216;23;20037;-82
2022/10/20 12:41:42;;;;;;;6.95;5.45;;;;;;;;;;6129661;23;20480;-83
2022/10/20 12:44:17;;;;;;;5.65;4.72;;;;;;;;;;6120088;23;20037;-83
2022/10/20 12:46:56;;;;;;;5.32;4.82;;;;;;;;;;6124860;23;20461;-83
2022/10/20 12:49:27;;;;;;;6.03;5.38;;;;;;;;;;6098355;23;20080;-85
2022/10/20 12:51:56;;;;;;;7.05;6.13;;;;;;;;;;6119329;23;20488;-85
2022/10/20 12:54:33;;;;;;;8.88;6.97;;;;;;;;;;6128978;23;20026;-85
2022/10/20 12:57:04;;;;;;;5.90;4.90;;;;;;;;;;6070340;23;20022;-84
2022/10/20 12:59:37;;;;;;;6.43;5.68;;;;;;;;;;6093834;23;20029;-83
2022/10/20 13:02:12;;;;;;;7.97;5.32;;;;;;;;;;6129249;23;20029;-88
2022/10/20 13:04:59;;;;;;;6.80;5.15;;;;;;;;;;6091177;23;20038;-86
2022/10/20 13:07:45;;;;;;;6.22;5.63;;;;;;;;;;6089255;23;20458;-84
2022/10/20 13:10:32;;;;;;;4.95;4.45;;;;;;;;;;6117433;23;20453;-87
2022/10/20 13:13:02;;;;;;;6.32;5.72;;;;;;;;;;6070490;23;20018;-81
2022/10/20 13:15:50;;;;;;;9.98;5.15;;;;;;;;;;6066017;23;20360;-88
2022/10/20 13:18:48;;;;;;;5.95;5.03;;;;;;;;;;6096991;23;20027;-85
2022/10/20 13:21:18;;;;;;;5.20;4.03;;;;;;;;;;6130522;23;20769;-85
2022/10/20 13:23:47;;;;;;;5.50;5.00;;;;;;;;;;6121695;23;20026;-85
2022/10/20 13:26:23;;;;;;;8.88;4.90;;;;;;;;;;6127219;23;20029;-85
2022/10/20 13:28:55;;;;;;;20.52;6.50;;;;;;;;;;6101220;23;20026;-84
2022/10/20 13:31:39;;;;;;;20.48;7.15;;;;;;;;;;6122442;23;20022;-85
2022/10/20 13:34:26;;;;;;;8.90;4.43;;;;;;;;;;6103161;23;20028;-86
2022/10/20 13:36:57;;;;;;;11.35;5.47;;;;;;;;;;6130534;23;20018;-85
2022/10/20 13:39:45;;;;;;;7.20;6.50;;;;;;;;;;6126180;23;20029;-85
2022/10/20 13:42:19;;;;;;;6.78;5.43;;;;;;;;;;6130942;23;20022;-85
2022/10/20 13:44:54;;;;;;;5.97;3.97;;;;;;;;;;6101517;23;20022;-86
2022/10/20 13:47:41;;;;;;;6.78;5.07;;;;;;;;;;6124928;23;20327;-87
2022/10/20 13:50:10;;;;;;;10.77;6.03;;;;;;;;;;6130913;23;20330;-84
2022/10/20 13:52:41;;;;;;;6.88;4.97;;;;;;;;;;6132839;23;20023;-85
2022/10/20 13:55:15;;;;;;;7.95;6.15;;;;;;;;;;6126435;23;20025;-86
2022/10/20 13:58:06;;;;;;;6.78;4.28;;;;;;;;;;6131715;23;20033;-85
2022/10/20 14:00:34;;;;;;;6.43;5.55;;;;;;;;;;6061430;23;20704;-85
2022/10/20 14:03:04;;;;;;;7.53;4.80;;;;;;;;;;6127190;23;20495;-85
2022/10/20 14:05:38;;;;;;;6.93;4.80;;;;;;;;;;6132763;23;20018;-85
2022/10/20 14:08:10;;;;;;;9.20;5.72;;;;;;;;;;6123211;23;20022;-85
2022/10/20 14:10:53;;;;;;;11.70;5.20;;;;;;;;;;6129372;23;20017;-86
2022/10/20 14:13:22;;;;;;;8.60;5.47;;;;;;;;;;6132835;23;20014;-84
2022/10/20 14:15:51;;;;;;;7.00;4.72;;;;;;;;;;6094389;23;20026;-85
2022/10/20 14:18:29;;;;;;;7.55;5.13;;;;;;;;;;6099397;23;20018;-85
2022/10/20 14:21:01;;;;;;;5.35;4.85;;;;;;;;;;6129911;23;20460;-85
2022/10/20 14:23:40;;;;;;;7.60;5.80;;;;;;;;;;6094486;23;20018;-85
2022/10/20 14:26:13;;;;;;;5.63;4.60;;;;;;;;;;6131022;23;20050;-85
2022/10/20 14:28:42;;;;;;;6.55;4.65;;;;;;;;;;6091436;23;20029;-86
2022/10/20 14:31:11;;;;;;;6.15;4.50;;;;;;;;;;6114712;23;20026;-85
2022/10/20 14:33:43;;;;;;;7.93;5.05;;;;;;;;;;6132346;23;20014;-85
2022/10/20 14:36:22;;;;;;;6.65;5.07;;;;;;;;;;6121523;23;20053;-85
2022/10/20 14:38:51;;;;;;;5.47;4.57;;;;;;;;;;6128793;23;20018;-85
2022/10/20 14:41:27;;;;;;;8.07;4.60;;;;;;;;;;6101802;23;20022;-85
2022/10/20 14:44:00;;;;;;;4.85;3.95;;;;;;;;;;6120625;23;20026;-84
2022/10/20 14:46:39;;;;;;;4.65;4.10;;;;;;;;;;6098308;23;20026;-84
2022/10/20 14:49:17;;;;;;;5.95;4.00;;;;;;;;;;6095997;23;20029;-84
2022/10/20 14:51:53;;;;;;;7.10;5.40;;;;;;;;;;6092525;23;20342;-84
2022/10/20 14:54:21;;;;;;;9.77;3.67;;;;;;;;;;6128082;23;20022;-84
2022/10/20 14:56:50;;;;;;;4.38;3.97;;;;;;;;;;6129702;23;20014;-83
2022/10/20 14:59:20;;;;;;;4.93;4.45;;;;;;;;;;6124763;23;20022;-81
2022/10/20 15:02:09;;;;;;;6.88;4.05;;;;;;;;;;6131236;23;20014;-83
2022/10/20 15:04:38;;;;;;;4.80;4.32;;;;;;;;;;6103799;23;20026;-83
2022/10/20 15:07:13;;;;;;;5.45;4.55;;;;;;;;;;6124508;23;20026;-83
2022/10/20 15:09:54;;;;;;;7.40;4.55;;;;;;;;;;6130502;23;20334;-83
2022/10/20 15:12:27;;;;;;;6.82;6.15;;;;;;;;;;6089131;23;20026;-84
2022/10/20 15:15:06;;;;;;;8.13;4.88;;;;;;;;;;6122476;23;20022;-84
2022/10/20 15:17:35;;;;;;;6.30;4.15;;;;;;;;;;6130300;23;20468;-83
2022/10/20 15:20:22;;;;;;;6.35;4.47;;;;;;;;;;6122446;23;20032;-85
2022/10/20 15:22:50;;;;;;;7.80;4.35;;;;;;;;;;6126213;23;20037;-85
2022/10/20 15:25:22;;;;;;;5.63;4.05;;;;;;;;;;6099262;23;20053;-86
2022/10/20 15:27:50;;;;;;;11.63;5.82;;;;;;;;;;6093379;23;20080;-85
2022/10/20 15:30:19;;;;;;;5.63;4.55;;;;;;;;;;6090387;23;20022;-85
2022/10/20 15:32:47;;;;;;;9.75;3.47;;;;;;;;;;6102066;23;20014;-85
2022/10/20 15:35:17;;;;;;;8.98;4.75;;;;;;;;;;6125093;23;20030;-85
2022/10/20 15:37:51;;;;;;;6.53;4.80;;;;;;;;;;6121730;23;20022;-85
2022/10/20 15:40:21;;;;;;;7.72;5.07;;;;;;;;;;6091007;23;20034;-85
2022/10/20 15:42:49;;;;;;;12.43;5.75;;;;;;;;;;6123665;23;20033;-85
2022/10/20 15:45:21;;;;;;;11.20;5.40;;;;;;;;;;6131715;23;20025;-84
2022/10/20 15:47:48;;;;;;;8.07;4.95;;;;;;;;;;6093319;23;20023;-83
2022/10/20 15:50:17;;;;;;;6.75;5.18;;;;;;;;;;6129308;23;20030;-84
2022/10/20 15:52:49;;;;;;;6.50;5.78;;;;;;;;;;6131803;23;20029;-86
2022/10/20 15:55:22;;;;;;;8.20;5.28;;;;;;;;;;6123865;23;20026;-86
2022/10/20 15:57:50;;;;;;;7.20;5.07;;;;;;;;;;6091982;23;20022;-86
2022/10/20 16:00:19;;;;;;;5.88;5.20;;;;;;;;;;6064998;23;20030;-85
2022/10/20 16:02:48;;;;;;;5.88;5.32;;;;;;;;;;6109968;23;20461;-88
2022/10/20 16:05:48;;;;;;;10.45;5.82;;;;;;;;;;6101760;23;20041;-85
2022/10/20 16:08:16;;;;;;;6.82;4.55;;;;;;;;;;6120683;23;20473;-85
2022/10/20 16:10:44;;;;;;;6.07;4.88;;;;;;;;;;6127574;23;20361;-83
2022/10/20 16:13:12;;;;;;;7.85;5.50;;;;;;;;;;6089763;23;20029;-85
2022/10/20 16:15:40;;;;;;;7.25;5.00;;;;;;;;;;6042705;23;20022;-85
2022/10/20 16:18:11;;;;;;;7.05;5.28;;;;;;;;;;6089451;23;20033;-85
2022/10/20 16:20:38;;;;;;;8.82;5.03;;;;;;;;;;6066649;23;20350;-85
2022/10/20 16:23:06;;;;;;;7.07;4.70;;;;;;;;;;6125430;23;20034;-84
2022/10/20 16:25:34;;;;;;;6.20;5.60;;;;;;;;;;6100214;23;20041;-85
2022/10/20 16:28:02;;;;;;;11.00;5.57;;;;;;;;;;6094938;23;20031;-85
2022/10/20 16:30:29;;;;;;;7.95;5.68;;;;;;;;;;6127709;23;20635;-85
2022/10/20 16:32:57;;;;;;;7.22;5.30;;;;;;;;;;6101949;23;20011;-83
2022/10/20 16:35:25;;;;;;;7.20;5.38;;;;;;;;;;6093194;23;20022;-81
2022/10/20 16:37:53;;;;;;;5.55;4.93;;;;;;;;;;6101601;23;20031;-82
2022/10/20 16:40:20;;;;;;;7.13;5.45;;;;;;;;;;6091277;23;20030;-83